sensor_id;sensor_type;location;lat;lon;timestamp;temperature;humidity
46976;DHT22;32724;51.094;6.996;2023-10-08T00:01:29;17.60;99.90
46976;DHT22;32724;51.094;6.996;2023-10-08T00:03:55;17.60;99.90
46976;DHT22;32724;51.094;6.996;2023-10-08T00:06:23;17.60;99.90
46976;DHT22;32724;51.094;6.996;2023-10-08T00:08:50;17.60;99.90
46976;DHT22;32724;51.094;6.996;2023-10-08T00:11:16;17.60;99.90
46976;DHT22;32724;51.094;6.996;2023-10-08T00:13:42;17.50;99.90
46976;DHT22;32724;51.094;6.996;2023-10-08T00:16:10;17.70;99.90
46976;DHT22;32724;51.094;6.996;2023-10-08T00:18:37;17.70;99.90
46976;DHT22;32724;51.094;6.996;2023-10-08T00:21:03;17.70;99.90
46976;DHT22;32724;51.094;6.996;2023-10-08T00:23:35;17.60;99.90
46976;DHT22;32724;51.094;6.996;2023-10-08T00:26:01;17.50;99.90
46976;DHT22;32724;51.094;6.996;2023-10-08T00:28:30;17.50;99.90
46976;DHT22;32724;51.094;6.996;2023-10-08T00:30:57;17.40;99.90
46976;DHT22;32724;51.094;6.996;2023-10-08T00:33:23;17.30;99.90
46976;DHT22;32724;51.094;6.996;2023-10-08T00:35:49;17.40;99.90
46976;DHT22;32724;51.094;6.996;2023-10-08T00:38:15;17.50;99.90
46976;DHT22;32724;51.094;6.996;2023-10-08T00:40:42;17.50;99.90
46976;DHT22;32724;51.094;6.996;2023-10-08T00:43:32;17.60;99.90
46976;DHT22;32724;51.094;6.996;2023-10-08T00:46:00;17.60;99.90
46976;DHT22;32724;51.094;6.996;2023-10-08T00:48:26;17.60;99.90
46976;DHT22;32724;51.094;6.996;2023-10-08T00:51:00;17.50;99.90
46976;DHT22;32724;51.094;6.996;2023-10-08T00:53:40;17.40;99.90
46976;DHT22;32724;51.094;6.996;2023-10-08T00:56:08;17.40;99.90
46976;DHT22;32724;51.094;6.996;2023-10-08T00:58:41;17.30;99.90
46976;DHT22;32724;51.094;6.996;2023-10-08T01:01:06;17.20;99.90
46976;DHT22;32724;51.094;6.996;2023-10-08T01:03:38;17.20;99.90
46976;DHT22;32724;51.094;6.996;2023-10-08T01:06:13;17.10;99.90
46976;DHT22;32724;51.094;6.996;2023-10-08T01:08:44;17.10;99.90
46976;DHT22;32724;51.094;6.996;2023-10-08T01:11:21;17.20;99.90
46976;DHT22;32724;51.094;6.996;2023-10-08T01:13:56;17.10;99.90
46976;DHT22;32724;51.094;6.996;2023-10-08T01:16:24;17.10;99.90
46976;DHT22;32724;51.094;6.996;2023-10-08T01:18:52;17.00;99.90
46976;DHT22;32724;51.094;6.996;2023-10-08T01:21:19;17.00;99.90
46976;DHT22;32724;51.094;6.996;2023-10-08T01:24:02;16.90;99.90
46976;DHT22;32724;51.094;6.996;2023-10-08T01:26:31;16.80;99.90
46976;DHT22;32724;51.094;6.996;2023-10-08T01:28:57;16.80;99.90
46976;DHT22;32724;51.094;6.996;2023-10-08T01:31:28;16.70;99.90
46976;DHT22;32724;51.094;6.996;2023-10-08T01:33:53;16.60;99.90
46976;DHT22;32724;51.094;6.996;2023-10-08T01:36:25;16.50;99.90
46976;DHT22;32724;51.094;6.996;2023-10-08T01:38:51;16.60;99.90
46976;DHT22;32724;51.094;6.996;2023-10-08T01:41:17;16.50;99.90
46976;DHT22;32724;51.094;6.996;2023-10-08T01:43:56;16.60;99.90
46976;DHT22;32724;51.094;6.996;2023-10-08T01:46:24;16.60;99.90
46976;DHT22;32724;51.094;6.996;2023-10-08T01:48:52;16.60;99.90
46976;DHT22;32724;51.094;6.996;2023-10-08T01:51:29;16.60;99.90
46976;DHT22;32724;51.094;6.996;2023-10-08T01:54:03;16.60;99.90
46976;DHT22;32724;51.094;6.996;2023-10-08T01:56:36;16.50;99.90
46976;DHT22;32724;51.094;6.996;2023-10-08T01:59:01;16.50;99.90
46976;DHT22;32724;51.094;6.996;2023-10-08T02:01:27;16.40;99.90
46976;DHT22;32724;51.094;6.996;2023-10-08T02:03:53;16.30;99.90
46976;DHT22;32724;51.094;6.996;2023-10-08T02:06:19;16.30;99.90
46976;DHT22;32724;51.094;6.996;2023-10-08T02:08:46;16.30;99.90
46976;DHT22;32724;51.094;6.996;2023-10-08T02:11:13;16.20;99.90
46976;DHT22;32724;51.094;6.996;2023-10-08T02:13:41;16.10;99.90
46976;DHT22;32724;51.094;6.996;2023-10-08T02:16:07;16.00;99.90
46976;DHT22;32724;51.094;6.996;2023-10-08T02:18:33;16.00;99.90
46976;DHT22;32724;51.094;6.996;2023-10-08T02:20:58;16.00;99.90
46976;DHT22;32724;51.094;6.996;2023-10-08T02:23:24;16.00;99.90
46976;DHT22;32724;51.094;6.996;2023-10-08T02:25:50;16.00;99.90
46976;DHT22;32724;51.094;6.996;2023-10-08T02:28:15;16.00;99.90
46976;DHT22;32724;51.094;6.996;2023-10-08T02:30:42;16.10;99.90
46976;DHT22;32724;51.094;6.996;2023-10-08T02:33:09;16.20;99.90
46976;DHT22;32724;51.094;6.996;2023-10-08T02:35:42;16.20;99.90
46976;DHT22;32724;51.094;6.996;2023-10-08T02:38:16;16.20;99.90
46976;DHT22;32724;51.094;6.996;2023-10-08T02:40:42;16.20;99.90
46976;DHT22;32724;51.094;6.996;2023-10-08T02:43:13;16.20;99.90
46976;DHT22;32724;51.094;6.996;2023-10-08T02:45:42;16.20;99.90
46976;DHT22;32724;51.094;6.996;2023-10-08T02:48:10;16.30;99.90
46976;DHT22;32724;51.094;6.996;2023-10-08T02:50:42;16.30;99.90
46976;DHT22;32724;51.094;6.996;2023-10-08T02:53:09;16.20;99.90
46976;DHT22;32724;51.094;6.996;2023-10-08T02:55:37;16.10;99.90
46976;DHT22;32724;51.094;6.996;2023-10-08T02:58:07;16.10;99.90
46976;DHT22;32724;51.094;6.996;2023-10-08T03:00:39;16.00;99.90
46976;DHT22;32724;51.094;6.996;2023-10-08T03:03:06;15.90;99.90
46976;DHT22;32724;51.094;6.996;2023-10-08T03:05:51;15.90;99.90
46976;DHT22;32724;51.094;6.996;2023-10-08T03:08:18;15.80;99.90
46976;DHT22;32724;51.094;6.996;2023-10-08T03:10:47;15.80;99.90
46976;DHT22;32724;51.094;6.996;2023-10-08T03:13:28;15.70;99.90
46976;DHT22;32724;51.094;6.996;2023-10-08T03:15:53;15.60;99.90
46976;DHT22;32724;51.094;6.996;2023-10-08T03:18:28;15.50;99.90
46976;DHT22;32724;51.094;6.996;2023-10-08T03:21:08;15.60;99.90
46976;DHT22;32724;51.094;6.996;2023-10-08T03:23:54;15.50;99.90
46976;DHT22;32724;51.094;6.996;2023-10-08T03:26:24;15.40;99.90
46976;DHT22;32724;51.094;6.996;2023-10-08T03:29:04;15.30;99.90
46976;DHT22;32724;51.094;6.996;2023-10-08T03:31:43;15.20;99.90
46976;DHT22;32724;51.094;6.996;2023-10-08T03:34:12;15.10;99.90
46976;DHT22;32724;51.094;6.996;2023-10-08T03:36:42;15.00;99.90
46976;DHT22;32724;51.094;6.996;2023-10-08T03:39:11;15.00;99.90
46976;DHT22;32724;51.094;6.996;2023-10-08T03:41:39;14.90;99.90
46976;DHT22;32724;51.094;6.996;2023-10-08T03:44:08;14.90;99.90
46976;DHT22;32724;51.094;6.996;2023-10-08T03:46:40;14.80;99.90
46976;DHT22;32724;51.094;6.996;2023-10-08T03:49:09;14.80;99.90
46976;DHT22;32724;51.094;6.996;2023-10-08T03:51:51;14.80;99.90
46976;DHT22;32724;51.094;6.996;2023-10-08T03:54:23;14.70;99.90
46976;DHT22;32724;51.094;6.996;2023-10-08T03:56:56;14.70;99.90
46976;DHT22;32724;51.094;6.996;2023-10-08T03:59:21;14.70;99.90
46976;DHT22;32724;51.094;6.996;2023-10-08T04:02:05;14.60;99.90
46976;DHT22;32724;51.094;6.996;2023-10-08T04:04:54;14.60;99.90
46976;DHT22;32724;51.094;6.996;2023-10-08T04:07:24;14.60;99.90
46976;DHT22;32724;51.094;6.996;2023-10-08T04:09:50;14.60;99.90
46976;DHT22;32724;51.094;6.996;2023-10-08T04:12:24;14.60;99.90
46976;DHT22;32724;51.094;6.996;2023-10-08T04:14:52;14.60;99.90
46976;DHT22;32724;51.094;6.996;2023-10-08T04:17:21;14.60;99.90
46976;DHT22;32724;51.094;6.996;2023-10-08T04:19:48;14.60;99.90
46976;DHT22;32724;51.094;6.996;2023-10-08T04:22:13;14.60;99.90
46976;DHT22;32724;51.094;6.996;2023-10-08T04:24:43;14.60;99.90
46976;DHT22;32724;51.094;6.996;2023-10-08T04:27:09;14.60;99.90
46976;DHT22;32724;51.094;6.996;2023-10-08T04:29:35;14.60;99.90
46976;DHT22;32724;51.094;6.996;2023-10-08T04:32:02;14.50;99.90
46976;DHT22;32724;51.094;6.996;2023-10-08T04:34:37;14.50;99.90
46976;DHT22;32724;51.094;6.996;2023-10-08T04:37:03;14.40;99.90
46976;DHT22;32724;51.094;6.996;2023-10-08T04:39:37;14.30;99.90
46976;DHT22;32724;51.094;6.996;2023-10-08T04:42:05;14.30;99.90
46976;DHT22;32724;51.094;6.996;2023-10-08T04:44:35;14.30;99.90
46976;DHT22;32724;51.094;6.996;2023-10-08T04:47:04;14.30;99.90
46976;DHT22;32724;51.094;6.996;2023-10-08T04:49:55;14.30;99.90
46976;DHT22;32724;51.094;6.996;2023-10-08T04:52:22;14.40;99.90
46976;DHT22;32724;51.094;6.996;2023-10-08T04:54:50;14.50;99.90
46976;DHT22;32724;51.094;6.996;2023-10-08T04:57:20;14.50;99.90
46976;DHT22;32724;51.094;6.996;2023-10-08T04:59:51;14.60;99.90
46976;DHT22;32724;51.094;6.996;2023-10-08T05:02:17;14.70;99.90
46976;DHT22;32724;51.094;6.996;2023-10-08T05:04:49;14.70;99.90
46976;DHT22;32724;51.094;6.996;2023-10-08T05:07:18;14.70;99.90
46976;DHT22;32724;51.094;6.996;2023-10-08T05:09:52;14.70;99.90
46976;DHT22;32724;51.094;6.996;2023-10-08T05:12:37;14.70;99.90
46976;DHT22;32724;51.094;6.996;2023-10-08T05:15:08;14.70;99.90
46976;DHT22;32724;51.094;6.996;2023-10-08T05:17:41;14.60;99.90
46976;DHT22;32724;51.094;6.996;2023-10-08T05:20:21;14.60;99.90
46976;DHT22;32724;51.094;6.996;2023-10-08T05:23:16;14.50;99.90
46976;DHT22;32724;51.094;6.996;2023-10-08T05:25:57;14.50;99.90
46976;DHT22;32724;51.094;6.996;2023-10-08T05:28:38;14.50;99.90
46976;DHT22;32724;51.094;6.996;2023-10-08T05:31:22;14.50;99.90
46976;DHT22;32724;51.094;6.996;2023-10-08T05:34:20;14.50;99.90
46976;DHT22;32724;51.094;6.996;2023-10-08T05:36:58;14.50;99.90
46976;DHT22;32724;51.094;6.996;2023-10-08T05:39:30;14.40;99.90
46976;DHT22;32724;51.094;6.996;2023-10-08T05:42:09;14.40;99.90
46976;DHT22;32724;51.094;6.996;2023-10-08T05:44:57;14.50;99.90
46976;DHT22;32724;51.094;6.996;2023-10-08T05:47:35;14.50;99.90
46976;DHT22;32724;51.094;6.996;2023-10-08T05:50:02;14.50;99.90
46976;DHT22;32724;51.094;6.996;2023-10-08T05:52:44;14.50;99.90
46976;DHT22;32724;51.094;6.996;2023-10-08T05:55:31;14.60;99.90
46976;DHT22;32724;51.094;6.996;2023-10-08T05:58:04;14.70;99.90
46976;DHT22;32724;51.094;6.996;2023-10-08T06:00:46;14.70;99.90
46976;DHT22;32724;51.094;6.996;2023-10-08T06:03:15;14.70;99.90
46976;DHT22;32724;51.094;6.996;2023-10-08T06:05:58;14.80;99.90
46976;DHT22;32724;51.094;6.996;2023-10-08T06:08:40;14.80;99.90
46976;DHT22;32724;51.094;6.996;2023-10-08T06:11:32;14.90;99.90
46976;DHT22;32724;51.094;6.996;2023-10-08T06:14:07;14.90;99.90
46976;DHT22;32724;51.094;6.996;2023-10-08T06:16:45;14.90;99.90
46976;DHT22;32724;51.094;6.996;2023-10-08T06:19:13;14.90;99.90
46976;DHT22;32724;51.094;6.996;2023-10-08T06:21:40;14.90;99.90
46976;DHT22;32724;51.094;6.996;2023-10-08T06:24:10;14.90;99.90
46976;DHT22;32724;51.094;6.996;2023-10-08T06:26:39;14.90;99.90
46976;DHT22;32724;51.094;6.996;2023-10-08T06:29:11;14.90;99.90
46976;DHT22;32724;51.094;6.996;2023-10-08T06:31:56;14.80;99.90
46976;DHT22;32724;51.094;6.996;2023-10-08T06:34:22;14.90;99.90
46976;DHT22;32724;51.094;6.996;2023-10-08T06:36:50;14.90;99.90
46976;DHT22;32724;51.094;6.996;2023-10-08T06:39:23;14.90;99.90
46976;DHT22;32724;51.094;6.996;2023-10-08T06:42:01;15.00;99.90
46976;DHT22;32724;51.094;6.996;2023-10-08T06:44:28;15.10;99.90
46976;DHT22;32724;51.094;6.996;2023-10-08T06:46:54;15.20;99.90
46976;DHT22;32724;51.094;6.996;2023-10-08T06:49:22;15.30;99.90
46976;DHT22;32724;51.094;6.996;2023-10-08T06:51:51;15.30;99.90
46976;DHT22;32724;51.094;6.996;2023-10-08T06:54:17;15.50;99.90
46976;DHT22;32724;51.094;6.996;2023-10-08T06:56:44;15.50;99.90
46976;DHT22;32724;51.094;6.996;2023-10-08T06:59:17;15.70;99.90
46976;DHT22;32724;51.094;6.996;2023-10-08T07:01:43;15.70;99.90
46976;DHT22;32724;51.094;6.996;2023-10-08T07:04:11;15.80;99.90
46976;DHT22;32724;51.094;6.996;2023-10-08T07:06:41;15.80;99.90
46976;DHT22;32724;51.094;6.996;2023-10-08T07:09:09;16.00;99.90
46976;DHT22;32724;51.094;6.996;2023-10-08T07:11:48;16.10;99.90
46976;DHT22;32724;51.094;6.996;2023-10-08T07:14:14;16.20;99.90
46976;DHT22;32724;51.094;6.996;2023-10-08T07:16:40;16.20;99.90
46976;DHT22;32724;51.094;6.996;2023-10-08T07:19:07;16.20;99.90
46976;DHT22;32724;51.094;6.996;2023-10-08T07:21:44;16.30;99.90
46976;DHT22;32724;51.094;6.996;2023-10-08T07:24:15;16.30;99.90
46976;DHT22;32724;51.094;6.996;2023-10-08T07:26:42;16.30;99.90
46976;DHT22;32724;51.094;6.996;2023-10-08T07:29:13;16.30;99.90
46976;DHT22;32724;51.094;6.996;2023-10-08T07:31:43;16.40;99.90
46976;DHT22;32724;51.094;6.996;2023-10-08T07:34:14;16.50;99.90
46976;DHT22;32724;51.094;6.996;2023-10-08T07:36:50;16.60;99.90
46976;DHT22;32724;51.094;6.996;2023-10-08T07:39:17;16.70;99.90
46976;DHT22;32724;51.094;6.996;2023-10-08T07:41:52;16.80;99.90
46976;DHT22;32724;51.094;6.996;2023-10-08T07:44:22;16.80;99.90
46976;DHT22;32724;51.094;6.996;2023-10-08T07:46:52;16.90;99.90
46976;DHT22;32724;51.094;6.996;2023-10-08T07:49:21;16.90;99.90
46976;DHT22;32724;51.094;6.996;2023-10-08T07:51:59;16.90;99.90
46976;DHT22;32724;51.094;6.996;2023-10-08T07:54:26;17.00;99.90
46976;DHT22;32724;51.094;6.996;2023-10-08T07:56:55;17.10;99.90
46976;DHT22;32724;51.094;6.996;2023-10-08T07:59:34;17.10;99.90
46976;DHT22;32724;51.094;6.996;2023-10-08T08:02:05;17.20;99.90
46976;DHT22;32724;51.094;6.996;2023-10-08T08:04:36;17.20;99.90
46976;DHT22;32724;51.094;6.996;2023-10-08T08:07:01;17.10;99.90
46976;DHT22;32724;51.094;6.996;2023-10-08T08:09:30;17.10;99.90
46976;DHT22;32724;51.094;6.996;2023-10-08T08:11:55;17.10;99.90
46976;DHT22;32724;51.094;6.996;2023-10-08T08:14:23;17.10;99.90
46976;DHT22;32724;51.094;6.996;2023-10-08T08:16:50;17.30;99.90
46976;DHT22;32724;51.094;6.996;2023-10-08T08:19:17;17.40;99.90
46976;DHT22;32724;51.094;6.996;2023-10-08T08:21:43;17.40;99.90
46976;DHT22;32724;51.094;6.996;2023-10-08T08:24:14;17.40;99.90
46976;DHT22;32724;51.094;6.996;2023-10-08T08:26:54;17.40;99.90
46976;DHT22;32724;51.094;6.996;2023-10-08T08:29:39;17.50;99.90
46976;DHT22;32724;51.094;6.996;2023-10-08T08:32:11;17.60;99.90
46976;DHT22;32724;51.094;6.996;2023-10-08T08:34:43;17.80;99.90
46976;DHT22;32724;51.094;6.996;2023-10-08T08:37:13;17.80;99.90
46976;DHT22;32724;51.094;6.996;2023-10-08T08:39:39;18.00;99.90
46976;DHT22;32724;51.094;6.996;2023-10-08T08:42:04;18.10;99.90
46976;DHT22;32724;51.094;6.996;2023-10-08T08:44:38;18.30;99.90
46976;DHT22;32724;51.094;6.996;2023-10-08T08:47:14;18.30;99.90
46976;DHT22;32724;51.094;6.996;2023-10-08T08:49:44;18.20;99.90
46976;DHT22;32724;51.094;6.996;2023-10-08T08:52:13;18.30;99.90
46976;DHT22;32724;51.094;6.996;2023-10-08T08:54:40;18.30;99.90
46976;DHT22;32724;51.094;6.996;2023-10-08T08:57:08;18.30;99.90
46976;DHT22;32724;51.094;6.996;2023-10-08T08:59:41;18.50;99.90
46976;DHT22;32724;51.094;6.996;2023-10-08T09:02:11;18.50;99.90
46976;DHT22;32724;51.094;6.996;2023-10-08T09:04:39;18.50;99.90
46976;DHT22;32724;51.094;6.996;2023-10-08T09:07:05;18.60;99.90
46976;DHT22;32724;51.094;6.996;2023-10-08T09:09:34;18.70;99.90
46976;DHT22;32724;51.094;6.996;2023-10-08T09:12:03;18.90;99.90
46976;DHT22;32724;51.094;6.996;2023-10-08T09:14:31;19.00;99.90
46976;DHT22;32724;51.094;6.996;2023-10-08T09:17:00;19.10;99.90
46976;DHT22;32724;51.094;6.996;2023-10-08T09:19:26;19.20;99.90
46976;DHT22;32724;51.094;6.996;2023-10-08T09:24:28;19.50;99.90
46976;DHT22;32724;51.094;6.996;2023-10-08T09:26:54;19.50;99.90
46976;DHT22;32724;51.094;6.996;2023-10-08T09:29:24;19.40;99.90
46976;DHT22;32724;51.094;6.996;2023-10-08T09:31:59;18.90;99.90
46976;DHT22;32724;51.094;6.996;2023-10-08T09:34:29;18.10;99.90
46976;DHT22;32724;51.094;6.996;2023-10-08T09:36:57;17.60;99.90
46976;DHT22;32724;51.094;6.996;2023-10-08T09:39:25;17.00;99.90
46976;DHT22;32724;51.094;6.996;2023-10-08T09:41:54;17.40;99.90
46976;DHT22;32724;51.094;6.996;2023-10-08T09:44:22;17.20;99.90
46976;DHT22;32724;51.094;6.996;2023-10-08T09:46:53;17.60;99.90
46976;DHT22;32724;51.094;6.996;2023-10-08T09:49:30;17.30;99.90
46976;DHT22;32724;51.094;6.996;2023-10-08T09:52:00;17.10;99.90
46976;DHT22;32724;51.094;6.996;2023-10-08T09:54:33;17.40;99.90
46976;DHT22;32724;51.094;6.996;2023-10-08T09:57:05;17.90;99.90
46976;DHT22;32724;51.094;6.996;2023-10-08T09:59:33;18.40;99.90
46976;DHT22;32724;51.094;6.996;2023-10-08T10:01:59;18.80;99.90
46976;DHT22;32724;51.094;6.996;2023-10-08T10:04:26;18.90;99.90
46976;DHT22;32724;51.094;6.996;2023-10-08T10:07:14;19.10;99.90
46976;DHT22;32724;51.094;6.996;2023-10-08T10:09:46;19.40;99.90
46976;DHT22;32724;51.094;6.996;2023-10-08T10:12:12;19.50;99.90
46976;DHT22;32724;51.094;6.996;2023-10-08T10:14:46;19.40;99.90
46976;DHT22;32724;51.094;6.996;2023-10-08T10:17:20;19.50;99.90
46976;DHT22;32724;51.094;6.996;2023-10-08T10:19:54;19.50;99.90
46976;DHT22;32724;51.094;6.996;2023-10-08T10:22:34;19.70;99.90
46976;DHT22;32724;51.094;6.996;2023-10-08T10:25:04;19.80;99.90
46976;DHT22;32724;51.094;6.996;2023-10-08T10:27:41;20.00;99.90
46976;DHT22;32724;51.094;6.996;2023-10-08T10:30:08;20.00;99.90
46976;DHT22;32724;51.094;6.996;2023-10-08T10:32:35;20.10;99.90
46976;DHT22;32724;51.094;6.996;2023-10-08T10:35:01;20.30;99.90
46976;DHT22;32724;51.094;6.996;2023-10-08T10:37:29;20.30;99.90
46976;DHT22;32724;51.094;6.996;2023-10-08T10:40:07;20.30;99.90
46976;DHT22;32724;51.094;6.996;2023-10-08T10:42:36;20.50;99.90
46976;DHT22;32724;51.094;6.996;2023-10-08T10:45:13;20.50;99.90
46976;DHT22;32724;51.094;6.996;2023-10-08T10:47:59;20.40;99.90
46976;DHT22;32724;51.094;6.996;2023-10-08T10:50:38;20.50;99.90
46976;DHT22;32724;51.094;6.996;2023-10-08T10:53:14;20.50;99.90
46976;DHT22;32724;51.094;6.996;2023-10-08T10:55:43;20.60;99.90
46976;DHT22;32724;51.094;6.996;2023-10-08T10:58:24;20.40;99.90
46976;DHT22;32724;51.094;6.996;2023-10-08T11:00:50;20.20;99.90
46976;DHT22;32724;51.094;6.996;2023-10-08T11:03:22;20.00;99.90
46976;DHT22;32724;51.094;6.996;2023-10-08T11:05:57;20.00;99.90
46976;DHT22;32724;51.094;6.996;2023-10-08T11:08:25;20.10;99.90
46976;DHT22;32724;51.094;6.996;2023-10-08T11:10:52;20.40;99.90
46976;DHT22;32724;51.094;6.996;2023-10-08T11:13:19;20.80;99.90
46976;DHT22;32724;51.094;6.996;2023-10-08T11:15:48;21.10;99.90
46976;DHT22;32724;51.094;6.996;2023-10-08T11:18:17;21.20;99.90
46976;DHT22;32724;51.094;6.996;2023-10-08T11:20:43;21.30;99.90
46976;DHT22;32724;51.094;6.996;2023-10-08T11:23:34;21.30;99.90
46976;DHT22;32724;51.094;6.996;2023-10-08T11:26:05;21.30;99.90
46976;DHT22;32724;51.094;6.996;2023-10-08T11:28:36;21.40;99.90
46976;DHT22;32724;51.094;6.996;2023-10-08T11:31:09;21.30;99.90
46976;DHT22;32724;51.094;6.996;2023-10-08T11:33:36;21.10;99.90
46976;DHT22;32724;51.094;6.996;2023-10-08T11:36:03;21.10;99.90
46976;DHT22;32724;51.094;6.996;2023-10-08T11:38:41;21.20;99.90
46976;DHT22;32724;51.094;6.996;2023-10-08T11:41:14;21.20;99.90
46976;DHT22;32724;51.094;6.996;2023-10-08T11:43:49;21.20;99.90
46976;DHT22;32724;51.094;6.996;2023-10-08T11:49:04;21.30;99.90
46976;DHT22;32724;51.094;6.996;2023-10-08T11:51:39;21.30;99.90
46976;DHT22;32724;51.094;6.996;2023-10-08T11:54:05;21.30;99.90
46976;DHT22;32724;51.094;6.996;2023-10-08T11:56:31;21.20;99.90
46976;DHT22;32724;51.094;6.996;2023-10-08T11:59:01;21.10;99.90
46976;DHT22;32724;51.094;6.996;2023-10-08T12:01:27;21.10;99.90
46976;DHT22;32724;51.094;6.996;2023-10-08T12:03:53;21.30;99.90
46976;DHT22;32724;51.094;6.996;2023-10-08T12:06:24;21.50;99.90
46976;DHT22;32724;51.094;6.996;2023-10-08T12:08:50;21.50;99.90
46976;DHT22;32724;51.094;6.996;2023-10-08T12:11:19;21.50;99.90
46976;DHT22;32724;51.094;6.996;2023-10-08T12:13:44;21.40;99.90
46976;DHT22;32724;51.094;6.996;2023-10-08T12:16:16;21.40;99.90
46976;DHT22;32724;51.094;6.996;2023-10-08T12:18:48;21.50;99.90
46976;DHT22;32724;51.094;6.996;2023-10-08T12:21:15;21.50;99.90
46976;DHT22;32724;51.094;6.996;2023-10-08T12:23:41;21.60;99.90
46976;DHT22;32724;51.094;6.996;2023-10-08T12:26:15;21.50;99.90
46976;DHT22;32724;51.094;6.996;2023-10-08T12:28:42;21.50;99.90
46976;DHT22;32724;51.094;6.996;2023-10-08T12:31:11;21.40;99.90
46976;DHT22;32724;51.094;6.996;2023-10-08T12:33:36;21.30;99.90
46976;DHT22;32724;51.094;6.996;2023-10-08T12:36:03;21.30;99.90
46976;DHT22;32724;51.094;6.996;2023-10-08T12:38:36;21.30;99.90
46976;DHT22;32724;51.094;6.996;2023-10-08T12:41:02;21.50;99.90
46976;DHT22;32724;51.094;6.996;2023-10-08T12:43:37;21.50;99.90
46976;DHT22;32724;51.094;6.996;2023-10-08T12:46:04;21.50;99.90
46976;DHT22;32724;51.094;6.996;2023-10-08T12:48:36;21.30;99.90
46976;DHT22;32724;51.094;6.996;2023-10-08T12:51:02;21.10;99.90
46976;DHT22;32724;51.094;6.996;2023-10-08T12:53:31;21.00;99.90
46976;DHT22;32724;51.094;6.996;2023-10-08T12:56:00;21.00;99.90
46976;DHT22;32724;51.094;6.996;2023-10-08T12:58:32;21.00;99.90
46976;DHT22;32724;51.094;6.996;2023-10-08T13:01:03;20.90;99.90
46976;DHT22;32724;51.094;6.996;2023-10-08T13:03:30;20.80;99.90
46976;DHT22;32724;51.094;6.996;2023-10-08T13:05:59;20.70;99.90
46976;DHT22;32724;51.094;6.996;2023-10-08T13:08:31;20.70;99.90
46976;DHT22;32724;51.094;6.996;2023-10-08T13:11:00;20.70;99.90
46976;DHT22;32724;51.094;6.996;2023-10-08T13:13:27;20.80;99.90
46976;DHT22;32724;51.094;6.996;2023-10-08T13:15:53;20.90;99.90
46976;DHT22;32724;51.094;6.996;2023-10-08T13:18:22;21.10;99.90
46976;DHT22;32724;51.094;6.996;2023-10-08T13:20:53;21.10;99.90
46976;DHT22;32724;51.094;6.996;2023-10-08T13:23:19;21.30;99.90
46976;DHT22;32724;51.094;6.996;2023-10-08T13:25:47;21.40;99.90
46976;DHT22;32724;51.094;6.996;2023-10-08T13:28:22;21.30;99.90
46976;DHT22;32724;51.094;6.996;2023-10-08T13:30:49;20.90;99.90
46976;DHT22;32724;51.094;6.996;2023-10-08T13:33:27;20.90;99.90
46976;DHT22;32724;51.094;6.996;2023-10-08T13:35:54;20.90;99.90
46976;DHT22;32724;51.094;6.996;2023-10-08T13:38:20;20.90;99.90
46976;DHT22;32724;51.094;6.996;2023-10-08T13:40:47;20.80;99.90
46976;DHT22;32724;51.094;6.996;2023-10-08T13:43:34;20.90;99.90
46976;DHT22;32724;51.094;6.996;2023-10-08T13:48:36;21.00;99.90
46976;DHT22;32724;51.094;6.996;2023-10-08T13:51:03;21.00;99.90
46976;DHT22;32724;51.094;6.996;2023-10-08T13:53:32;20.90;99.90
46976;DHT22;32724;51.094;6.996;2023-10-08T13:56:02;20.80;99.90
46976;DHT22;32724;51.094;6.996;2023-10-08T13:58:30;21.00;99.90
46976;DHT22;32724;51.094;6.996;2023-10-08T14:00:57;21.00;99.90
46976;DHT22;32724;51.094;6.996;2023-10-08T14:03:28;20.90;99.90
46976;DHT22;32724;51.094;6.996;2023-10-08T14:05:58;20.90;99.90
46976;DHT22;32724;51.094;6.996;2023-10-08T14:08:28;21.00;99.90
46976;DHT22;32724;51.094;6.996;2023-10-08T14:10:54;21.10;99.90
46976;DHT22;32724;51.094;6.996;2023-10-08T14:13:26;21.30;99.90
46976;DHT22;32724;51.094;6.996;2023-10-08T14:15:53;21.40;99.90
46976;DHT22;32724;51.094;6.996;2023-10-08T14:18:22;21.30;99.90
46976;DHT22;32724;51.094;6.996;2023-10-08T14:20:53;21.40;99.90
46976;DHT22;32724;51.094;6.996;2023-10-08T14:23:23;21.40;99.90
46976;DHT22;32724;51.094;6.996;2023-10-08T14:25:51;21.20;99.90
46976;DHT22;32724;51.094;6.996;2023-10-08T14:28:19;21.10;99.90
46976;DHT22;32724;51.094;6.996;2023-10-08T14:30:50;20.90;99.90
46976;DHT22;32724;51.094;6.996;2023-10-08T14:33:21;20.90;99.90
46976;DHT22;32724;51.094;6.996;2023-10-08T14:35:52;20.90;99.90
46976;DHT22;32724;51.094;6.996;2023-10-08T14:38:36;21.00;99.90
46976;DHT22;32724;51.094;6.996;2023-10-08T14:41:20;21.10;99.90
46976;DHT22;32724;51.094;6.996;2023-10-08T14:44:05;21.20;99.90
46976;DHT22;32724;51.094;6.996;2023-10-08T14:46:32;21.20;99.90
46976;DHT22;32724;51.094;6.996;2023-10-08T14:49:00;21.10;99.90
46976;DHT22;32724;51.094;6.996;2023-10-08T14:51:27;21.00;99.90
46976;DHT22;32724;51.094;6.996;2023-10-08T14:53:55;21.10;99.90
46976;DHT22;32724;51.094;6.996;2023-10-08T14:56:21;21.00;99.90
46976;DHT22;32724;51.094;6.996;2023-10-08T14:58:48;21.00;99.90
46976;DHT22;32724;51.094;6.996;2023-10-08T15:01:14;21.00;99.90
46976;DHT22;32724;51.094;6.996;2023-10-08T15:03:40;20.90;99.90
46976;DHT22;32724;51.094;6.996;2023-10-08T15:06:05;21.00;99.90
46976;DHT22;32724;51.094;6.996;2023-10-08T15:08:33;21.00;99.90
46976;DHT22;32724;51.094;6.996;2023-10-08T15:10:58;21.00;99.90
46976;DHT22;32724;51.094;6.996;2023-10-08T15:13:25;21.00;99.90
46976;DHT22;32724;51.094;6.996;2023-10-08T15:15:52;20.90;99.90
46976;DHT22;32724;51.094;6.996;2023-10-08T15:18:17;20.80;99.90
46976;DHT22;32724;51.094;6.996;2023-10-08T15:20:44;20.80;99.90
46976;DHT22;32724;51.094;6.996;2023-10-08T15:23:09;20.60;99.90
46976;DHT22;32724;51.094;6.996;2023-10-08T15:25:38;20.40;99.90
46976;DHT22;32724;51.094;6.996;2023-10-08T15:28:05;20.40;99.90
46976;DHT22;32724;51.094;6.996;2023-10-08T15:30:30;20.40;99.90
46976;DHT22;32724;51.094;6.996;2023-10-08T15:32:58;20.40;99.90
46976;DHT22;32724;51.094;6.996;2023-10-08T15:35:23;20.40;99.90
46976;DHT22;32724;51.094;6.996;2023-10-08T15:37:50;20.50;99.90
46976;DHT22;32724;51.094;6.996;2023-10-08T15:40:19;20.60;99.90
46976;DHT22;32724;51.094;6.996;2023-10-08T15:42:53;20.70;99.90
46976;DHT22;32724;51.094;6.996;2023-10-08T15:45:20;20.70;99.90
46976;DHT22;32724;51.094;6.996;2023-10-08T15:47:47;20.70;99.90
46976;DHT22;32724;51.094;6.996;2023-10-08T15:50:14;20.70;99.90
46976;DHT22;32724;51.094;6.996;2023-10-08T15:52:40;20.60;99.90
46976;DHT22;32724;51.094;6.996;2023-10-08T15:55:06;20.40;99.90
46976;DHT22;32724;51.094;6.996;2023-10-08T15:57:33;20.10;99.90
46976;DHT22;32724;51.094;6.996;2023-10-08T15:59:58;20.00;99.90